createdAt,value
2022-07-25T00:01:42.911Z,6.60
2022-07-25T00:04:12.181Z,6.63
2022-07-25T00:06:39.471Z,6.95
2022-07-25T00:09:06.200Z,6.18
2022-07-25T00:11:32.967Z,5.40
2022-07-25T00:13:59.624Z,6.40
2022-07-25T00:16:26.524Z,6.95
2022-07-25T00:18:53.141Z,6.50
2022-07-25T00:21:19.751Z,6.10
2022-07-25T00:23:46.346Z,7.13
2022-07-25T00:26:12.943Z,6.95
2022-07-25T00:28:39.527Z,6.90
2022-07-25T00:31:06.180Z,7.75
2022-07-25T00:33:32.840Z,7.05
2022-07-25T00:35:59.805Z,7.32
2022-07-25T00:38:26.416Z,7.03
2022-07-25T00:40:54.250Z,7.00
2022-07-25T00:43:22.149Z,7.32
2022-07-25T00:45:48.699Z,7.57
2022-07-25T00:48:15.225Z,8.23
2022-07-25T00:50:42.207Z,7.07
2022-07-25T00:53:08.817Z,7.70
2022-07-25T00:55:36.070Z,6.78
2022-07-25T00:58:02.624Z,6.57
2022-07-25T01:00:29.534Z,6.72
2022-07-25T01:02:57.485Z,7.22
2022-07-25T01:05:24.175Z,7.43
2022-07-25T01:07:52.019Z,6.65
2022-07-25T01:10:18.659Z,6.95
2022-07-25T01:12:55.855Z,7.43
2022-07-25T01:15:25.966Z,7.35
2022-07-25T01:17:53.255Z,8.27
2022-07-25T01:20:25.100Z,7.68
2022-07-25T01:22:52.739Z,6.60
2022-07-25T01:25:20.020Z,7.72
2022-07-25T01:27:51.355Z,7.85
2022-07-25T01:30:22.832Z,7.57
2022-07-25T01:32:49.436Z,6.88
2022-07-25T01:35:16.443Z,7.80
2022-07-25T01:37:45.434Z,7.35
2022-07-25T01:40:14.252Z,7.00
2022-07-25T01:42:42.023Z,7.50
2022-07-25T01:45:09.542Z,7.63
2022-07-25T01:47:36.143Z,7.10
2022-07-25T01:50:03.734Z,7.72
2022-07-25T01:52:30.294Z,6.97
2022-07-25T01:54:56.866Z,7.47
2022-07-25T01:57:30.092Z,7.68
2022-07-25T01:59:58.597Z,6.88
2022-07-25T02:02:25.348Z,7.38
2022-07-25T02:04:51.976Z,6.63
2022-07-25T02:07:18.614Z,7.50
2022-07-25T02:09:45.180Z,7.10
2022-07-25T02:12:11.882Z,6.90
2022-07-25T02:14:38.540Z,7.72
2022-07-25T02:17:05.324Z,7.18
2022-07-25T02:19:31.907Z,6.90
2022-07-25T02:21:58.473Z,6.68
2022-07-25T02:24:25.031Z,7.32
2022-07-25T02:26:51.698Z,7.15
2022-07-25T02:29:18.388Z,7.47
2022-07-25T02:31:48.555Z,7.22
2022-07-25T02:34:15.139Z,6.85
2022-07-25T02:36:41.684Z,7.38
2022-07-25T02:39:08.262Z,7.05
2022-07-25T02:41:34.839Z,7.00
2022-07-25T02:44:01.377Z,6.30
2022-07-25T02:46:27.963Z,7.32
2022-07-25T02:48:54.691Z,7.10
2022-07-25T02:51:21.296Z,6.78
2022-07-25T02:53:57.077Z,6.18
2022-07-25T02:56:24.112Z,8.23
2022-07-25T02:58:51.133Z,7.40
2022-07-25T03:01:17.830Z,6.75
2022-07-25T03:03:44.554Z,7.95
2022-07-25T03:06:11.131Z,7.25
2022-07-25T03:08:37.747Z,6.65
2022-07-25T03:11:04.737Z,8.05
2022-07-25T03:13:33.080Z,6.95
2022-07-25T03:15:59.740Z,6.95
2022-07-25T03:18:26.348Z,7.75
2022-07-25T03:20:53.038Z,8.02
2022-07-25T03:23:19.559Z,6.88
2022-07-25T03:25:46.135Z,7.40
2022-07-25T03:28:12.710Z,7.30
2022-07-25T03:30:39.298Z,6.40
2022-07-25T03:33:05.821Z,7.88
2022-07-25T03:35:32.414Z,6.75
2022-07-25T03:37:59.034Z,7.28
2022-07-25T03:40:25.626Z,7.10
2022-07-25T03:42:52.194Z,7.25
2022-07-25T03:45:18.761Z,7.28
2022-07-25T03:47:45.349Z,7.20
2022-07-25T03:50:12.145Z,6.97
2022-07-25T03:52:38.826Z,8.18
2022-07-25T03:55:10.048Z,7.22
2022-07-25T03:57:37.009Z,7.22
2022-07-25T04:00:06.178Z,6.55
2022-07-25T04:02:33.256Z,7.50
2022-07-25T04:04:59.824Z,7.72
2022-07-25T04:07:26.658Z,7.47
2022-07-25T04:09:53.146Z,8.13
2022-07-25T04:12:19.809Z,6.95
2022-07-25T04:14:46.354Z,7.38
2022-07-25T04:17:13.063Z,7.22
2022-07-25T04:19:39.744Z,6.03
2022-07-25T04:22:06.418Z,6.75
2022-07-25T04:24:32.979Z,7.25
2022-07-25T04:26:59.565Z,6.30
2022-07-25T04:29:26.087Z,6.47
2022-07-25T04:31:52.671Z,6.40
2022-07-25T04:34:19.490Z,6.68
2022-07-25T04:36:46.079Z,6.32
2022-07-25T04:39:12.672Z,6.63
2022-07-25T04:41:39.295Z,6.43
2022-07-25T04:44:07.638Z,6.25
2022-07-25T04:46:34.922Z,6.18
2022-07-25T04:49:01.722Z,6.25
2022-07-25T04:51:28.384Z,5.72
2022-07-25T04:53:54.955Z,6.13
2022-07-25T04:56:21.486Z,7.00
2022-07-25T04:58:48.037Z,6.00
2022-07-25T05:01:14.778Z,6.45
2022-07-25T05:03:41.351Z,6.45
2022-07-25T05:06:16.736Z,5.97
2022-07-25T05:08:43.426Z,6.45
2022-07-25T05:11:10.030Z,6.00
2022-07-25T05:13:36.606Z,6.10
2022-07-25T05:16:03.238Z,6.35
2022-07-25T05:18:29.872Z,5.65
2022-07-25T05:20:56.552Z,5.70
2022-07-25T05:23:23.084Z,5.28
2022-07-25T05:25:49.629Z,6.43
2022-07-25T05:28:17.749Z,5.95
2022-07-25T05:30:44.342Z,5.47
2022-07-25T05:33:10.940Z,6.40
2022-07-25T05:35:37.625Z,6.65
2022-07-25T05:38:05.437Z,6.03
2022-07-25T05:40:32.004Z,6.38
2022-07-25T05:43:02.986Z,6.05
2022-07-25T05:45:30.649Z,4.93
2022-07-25T05:47:57.183Z,5.82
2022-07-25T05:50:23.801Z,6.15
2022-07-25T05:52:50.414Z,6.40
2022-07-25T05:55:17.614Z,5.80
2022-07-25T05:57:44.194Z,5.97
2022-07-25T06:00:11.308Z,5.00
2022-07-25T06:02:38.267Z,5.35
2022-07-25T06:05:05.395Z,5.80
2022-07-25T06:07:31.920Z,5.13
2022-07-25T06:09:58.761Z,5.28
2022-07-25T06:12:25.390Z,3.78
2022-07-25T06:14:52.173Z,5.07
2022-07-25T06:17:18.784Z,5.20
2022-07-25T06:19:45.451Z,4.60
2022-07-25T06:22:12.593Z,4.40
2022-07-25T06:24:41.638Z,5.00
2022-07-25T06:27:08.734Z,5.20
2022-07-25T06:29:35.483Z,4.65
2022-07-25T06:32:02.112Z,5.00
2022-07-25T06:34:29.060Z,5.45
2022-07-25T06:36:57.497Z,4.80
2022-07-25T06:39:25.385Z,6.20
2022-07-25T06:41:52.410Z,5.18
2022-07-25T06:44:19.105Z,5.45
2022-07-25T06:46:45.708Z,4.95
2022-07-25T06:49:12.480Z,5.18
2022-07-25T06:51:39.108Z,4.75
2022-07-25T06:54:05.969Z,5.15
2022-07-25T06:56:33.056Z,5.32
2022-07-25T06:59:00.431Z,5.00
2022-07-25T07:01:27.494Z,4.45
2022-07-25T07:03:54.155Z,4.95
2022-07-25T07:06:20.784Z,4.50
2022-07-25T07:08:47.330Z,4.40
2022-07-25T07:11:15.354Z,5.30
2022-07-25T07:13:41.978Z,5.00
2022-07-25T07:16:08.855Z,4.18
2022-07-25T07:18:35.560Z,5.20
2022-07-25T07:21:02.182Z,5.25
2022-07-25T07:23:29.027Z,4.63
2022-07-25T07:25:56.439Z,4.70
2022-07-25T07:28:23.133Z,4.95
2022-07-25T07:31:15.029Z,5.72
2022-07-25T07:33:37.620Z,5.07
2022-07-25T07:36:04.421Z,5.47
2022-07-25T07:38:30.966Z,5.47
2022-07-25T07:40:57.516Z,5.00
2022-07-25T07:43:29.370Z,5.50
2022-07-25T07:45:56.749Z,5.68
2022-07-25T07:48:23.309Z,4.72
2022-07-25T07:50:49.835Z,5.40
2022-07-25T07:53:16.374Z,5.15
2022-07-25T07:55:45.930Z,4.97
2022-07-25T07:58:15.844Z,5.32
2022-07-25T08:00:44.259Z,5.72
2022-07-25T08:03:10.898Z,5.28
2022-07-25T08:05:42.960Z,5.28
2022-07-25T08:08:12.056Z,4.70
2022-07-25T08:10:41.225Z,4.88
2022-07-25T08:13:17.851Z,4.57
2022-07-25T08:15:48.507Z,5.65
2022-07-25T08:18:17.468Z,4.93
2022-07-25T08:20:48.640Z,4.97
2022-07-25T08:23:15.577Z,5.13
2022-07-25T08:25:43.233Z,5.07
2022-07-25T08:28:10.297Z,5.03
2022-07-25T08:30:38.274Z,5.30
2022-07-25T08:33:07.994Z,4.63
2022-07-25T08:35:34.861Z,4.63
2022-07-25T08:38:02.788Z,4.75
2022-07-25T08:40:30.451Z,5.38
2022-07-25T08:42:58.475Z,4.93
2022-07-25T08:45:26.742Z,5.22
2022-07-25T08:50:23.888Z,4.97
2022-07-25T08:52:57.439Z,4.82
2022-07-25T08:55:36.965Z,4.30
2022-07-25T08:58:03.549Z,4.72
2022-07-25T09:00:30.151Z,4.80
2022-07-25T09:03:02.528Z,5.07
2022-07-25T09:05:32.010Z,4.55
2022-07-25T09:08:10.435Z,4.50
2022-07-25T09:10:39.242Z,4.72
2022-07-25T09:13:10.904Z,4.75
2022-07-25T09:15:40.846Z,4.70
2022-07-25T09:18:15.975Z,4.63
2022-07-25T09:20:46.358Z,5.35
2022-07-25T09:23:28.274Z,4.45
2022-07-25T09:26:14.685Z,5.20
2022-07-25T09:28:47.405Z,4.35
2022-07-25T09:31:15.635Z,4.35
2022-07-25T09:33:51.696Z,4.82
2022-07-25T09:36:18.762Z,4.82
2022-07-25T09:38:55.905Z,4.53
2022-07-25T09:41:22.884Z,4.07
2022-07-25T09:43:49.412Z,4.53
2022-07-25T09:46:16.018Z,4.85
2022-07-25T09:48:45.199Z,4.88
2022-07-25T09:51:12.209Z,4.55
2022-07-25T09:53:40.348Z,5.20
2022-07-25T09:56:08.188Z,4.72
2022-07-25T10:01:05.314Z,4.00
2022-07-25T10:03:51.404Z,4.82
2022-07-25T10:06:34.823Z,4.45
2022-07-25T10:09:01.485Z,5.05
2022-07-25T10:11:29.920Z,4.85
2022-07-25T10:13:57.130Z,4.60
2022-07-25T10:16:26.043Z,4.90
2022-07-25T10:18:57.851Z,4.57
2022-07-25T10:21:27.954Z,4.95
2022-07-25T10:24:03.713Z,4.10
2022-07-25T10:26:31.352Z,4.55
2022-07-25T10:28:59.090Z,4.53
2022-07-25T10:31:34.489Z,4.47
2022-07-25T10:34:04.228Z,4.15
2022-07-25T10:36:49.256Z,4.35
2022-07-25T10:39:18.363Z,4.25
2022-07-25T10:41:58.559Z,4.43
2022-07-25T10:44:30.495Z,3.47
2022-07-25T10:47:08.539Z,3.50
2022-07-25T10:50:13.494Z,3.60
2022-07-25T10:52:30.655Z,3.80
2022-07-25T10:54:59.362Z,4.75
2022-07-25T10:57:31.446Z,3.97
2022-07-25T11:00:06.617Z,4.30
2022-07-25T11:02:33.219Z,4.00
2022-07-25T11:05:02.030Z,3.67
2022-07-25T11:07:29.121Z,3.80
2022-07-25T11:10:01.254Z,3.63
2022-07-25T11:12:27.998Z,3.97
2022-07-25T11:15:08.153Z,4.03
2022-07-25T11:17:34.833Z,4.20
2022-07-25T11:20:06.910Z,4.20
2022-07-25T11:22:34.620Z,3.50
2022-07-25T11:25:02.351Z,3.83
2022-07-25T11:27:31.543Z,3.85
2022-07-25T11:30:15.632Z,3.55
2022-07-25T11:32:49.681Z,4.20
2022-07-25T11:35:22.082Z,3.58
2022-07-25T11:37:50.741Z,3.85
2022-07-25T11:40:18.568Z,3.53
2022-07-25T11:42:48.229Z,3.80
2022-07-25T11:45:34.064Z,4.28
2022-07-25T11:48:05.318Z,3.38
2022-07-25T11:50:33.503Z,4.18
2022-07-25T11:53:01.611Z,3.45
2022-07-25T11:55:30.631Z,3.78
2022-07-25T11:58:01.812Z,3.88
2022-07-25T12:00:29.586Z,4.07
2022-07-25T12:03:12.093Z,3.72
2022-07-25T12:05:42.329Z,3.60
2022-07-25T12:08:17.662Z,4.30
2022-07-25T12:10:47.535Z,3.78
2022-07-25T12:13:28.653Z,4.45
2022-07-25T12:15:59.716Z,4.43
2022-07-25T12:18:27.367Z,4.13
2022-07-25T12:23:23.593Z,5.00
2022-07-25T12:25:50.873Z,3.72
2022-07-25T12:28:17.910Z,4.28
2022-07-25T12:30:46.420Z,3.88
2022-07-25T12:33:13.605Z,4.07
2022-07-25T12:35:41.238Z,4.45
2022-07-25T12:38:07.940Z,4.68
2022-07-25T12:40:34.626Z,4.60
2022-07-25T12:43:01.362Z,4.53
2022-07-25T12:45:28.193Z,4.28
2022-07-25T12:47:54.966Z,4.50
2022-07-25T12:50:22.330Z,4.28
2022-07-25T12:52:48.960Z,4.75
2022-07-25T12:55:18.518Z,3.88
2022-07-25T12:57:46.243Z,4.20
2022-07-25T13:00:15.648Z,3.88
2022-07-25T13:02:42.662Z,4.18
2022-07-25T13:05:10.269Z,4.23
2022-07-25T13:07:37.102Z,4.13
2022-07-25T13:10:04.714Z,5.03
2022-07-25T13:12:31.448Z,4.35
2022-07-25T13:14:57.996Z,4.15
2022-07-25T13:17:27.544Z,4.05
2022-07-25T13:19:55.380Z,3.90
2022-07-25T13:22:21.961Z,4.35
2022-07-25T13:24:48.577Z,3.88
2022-07-25T13:27:17.566Z,3.95
2022-07-25T13:29:44.146Z,4.55
2022-07-25T13:32:11.954Z,3.95
2022-07-25T13:34:38.611Z,4.38
2022-07-25T13:37:05.625Z,4.05
2022-07-25T13:39:32.136Z,4.32
2022-07-25T13:41:58.720Z,4.22
2022-07-25T13:44:25.209Z,3.95
2022-07-25T13:46:51.774Z,4.85
2022-07-25T13:49:18.478Z,4.95
2022-07-25T13:51:45.669Z,4.93
2022-07-25T13:54:12.946Z,5.07
2022-07-25T13:56:41.395Z,4.40
2022-07-25T13:59:08.870Z,4.78
2022-07-25T14:01:36.285Z,4.38
2022-07-25T14:04:02.964Z,4.95
2022-07-25T14:06:29.575Z,4.35
2022-07-25T14:08:56.129Z,4.90
2022-07-25T14:11:26.037Z,5.15
2022-07-25T14:13:56.907Z,4.45
2022-07-25T14:16:23.492Z,4.90
2022-07-25T14:18:50.792Z,4.25
2022-07-25T14:21:17.515Z,5.50
2022-07-25T14:23:44.128Z,4.75
2022-07-25T14:26:10.682Z,5.07
2022-07-25T14:28:37.491Z,5.00
2022-07-25T14:31:04.100Z,4.68
2022-07-25T14:33:30.769Z,4.68
2022-07-25T14:35:57.386Z,4.65
2022-07-25T14:38:23.927Z,4.55
2022-07-25T14:40:51.429Z,4.88
2022-07-25T14:43:18.078Z,4.95
2022-07-25T14:45:44.718Z,13.90
2022-07-25T14:48:11.250Z,8.07
2022-07-25T14:50:37.831Z,5.53
2022-07-25T14:53:04.360Z,5.90
2022-07-25T14:55:31.421Z,5.80
2022-07-25T14:58:02.324Z,4.93
2022-07-25T15:00:29.764Z,5.03
2022-07-25T15:02:57.140Z,5.57
2022-07-25T15:05:23.738Z,5.03
2022-07-25T15:07:50.381Z,4.85
2022-07-25T15:10:17.396Z,3.92
2022-07-25T15:12:43.943Z,4.20
2022-07-25T15:15:11.485Z,3.83
2022-07-25T15:17:38.729Z,3.65
2022-07-25T15:20:05.880Z,3.78
2022-07-25T15:22:32.512Z,4.07
2022-07-25T15:25:34.808Z,3.22
2022-07-25T15:27:45.687Z,4.20
2022-07-25T15:30:12.928Z,3.70
2022-07-25T15:32:40.205Z,3.33
2022-07-25T15:35:07.132Z,3.83
2022-07-25T15:37:33.704Z,3.40
2022-07-25T15:40:00.457Z,3.92
2022-07-25T15:42:29.181Z,3.28
2022-07-25T15:45:22.348Z,3.03
2022-07-25T15:47:45.198Z,3.60
2022-07-25T15:50:15.571Z,3.50
2022-07-25T15:52:42.153Z,3.45
2022-07-25T15:55:08.927Z,3.40
2022-07-25T15:57:35.526Z,3.60
2022-07-25T16:00:02.400Z,4.00
2022-07-25T16:02:28.945Z,3.55
2022-07-25T16:04:55.536Z,3.83
2022-07-25T16:07:22.170Z,3.65
2022-07-25T16:09:49.835Z,3.72
2022-07-25T16:12:16.531Z,3.83
2022-07-25T16:14:43.119Z,3.67
2022-07-25T16:17:09.906Z,3.25
2022-07-25T16:19:36.461Z,4.85
2022-07-25T16:22:02.997Z,3.53
2022-07-25T16:24:29.578Z,3.20
2022-07-25T16:26:56.225Z,3.38
2022-07-25T16:29:22.836Z,3.15
2022-07-25T16:31:51.055Z,4.03
2022-07-25T16:34:17.687Z,3.88
2022-07-25T16:36:44.385Z,4.10
2022-07-25T16:39:11.141Z,4.00
2022-07-25T16:41:37.840Z,3.53
2022-07-25T16:44:04.681Z,3.35
2022-07-25T16:46:31.381Z,3.30
2022-07-25T16:48:58.070Z,3.95
2022-07-25T16:51:24.762Z,3.03
2022-07-25T16:53:51.291Z,2.95
2022-07-25T16:56:18.091Z,3.20
2022-07-25T16:58:46.546Z,3.08
2022-07-25T17:01:14.232Z,2.70
2022-07-25T17:03:41.013Z,3.00
2022-07-25T17:06:08.334Z,3.45
2022-07-25T17:08:37.767Z,7.18
2022-07-25T17:11:05.225Z,4.63
2022-07-25T17:13:31.763Z,3.38
2022-07-25T17:15:58.540Z,3.38
2022-07-25T17:18:25.353Z,2.40
2022-07-25T17:20:53.188Z,2.65
2022-07-25T17:23:19.788Z,2.58
2022-07-25T17:25:50.505Z,2.70
2022-07-25T17:28:17.881Z,2.95
2022-07-25T17:30:45.624Z,2.63
2022-07-25T17:33:12.245Z,2.40
2022-07-25T17:35:38.827Z,3.20
2022-07-25T17:38:05.912Z,2.60
2022-07-25T17:40:34.507Z,2.42
2022-07-25T17:43:01.022Z,1.95
2022-07-25T17:45:27.557Z,2.30
2022-07-25T17:47:54.255Z,2.42
2022-07-25T17:50:28.612Z,2.20
2022-07-25T17:52:58.863Z,2.60
2022-07-25T17:55:26.163Z,1.92
2022-07-25T17:57:55.509Z,2.17
2022-07-25T18:00:23.552Z,2.08
2022-07-25T18:02:50.620Z,2.33
2022-07-25T18:05:18.472Z,2.10
2022-07-25T18:07:48.204Z,1.92
2022-07-25T18:10:18.329Z,2.30
2022-07-25T18:12:45.140Z,2.35
2022-07-25T18:15:12.344Z,1.90
2022-07-25T18:17:40.968Z,2.72
2022-07-25T18:20:08.194Z,2.40
2022-07-25T18:22:34.778Z,2.55
2022-07-25T18:25:01.393Z,2.80
2022-07-25T18:27:27.958Z,2.85
2022-07-25T18:29:54.552Z,2.20
2022-07-25T18:32:21.156Z,2.67
2022-07-25T18:34:47.717Z,2.90
2022-07-25T18:37:14.313Z,3.15
2022-07-25T18:39:42.106Z,2.80
2022-07-25T18:42:08.635Z,3.28
2022-07-25T18:44:35.188Z,2.70
2022-07-25T18:47:02.737Z,2.92
2022-07-25T18:49:29.403Z,3.00
2022-07-25T18:51:55.937Z,2.50
2022-07-25T18:54:22.571Z,2.90
2022-07-25T18:56:49.098Z,2.78
2022-07-25T18:59:16.027Z,2.65
2022-07-25T19:01:42.663Z,3.25
2022-07-25T19:04:09.563Z,2.42
2022-07-25T19:06:36.619Z,3.20
2022-07-25T19:09:03.694Z,2.97
2022-07-25T19:11:30.388Z,2.92
2022-07-25T19:13:57.565Z,3.40
2022-07-25T19:16:24.338Z,3.08
2022-07-25T19:18:50.956Z,3.90
2022-07-25T19:21:17.565Z,3.17
2022-07-25T19:23:50.188Z,3.15
2022-07-25T19:26:17.994Z,3.65
2022-07-25T19:28:44.642Z,3.47
2022-07-25T19:31:11.416Z,3.85
2022-07-25T19:33:38.858Z,4.45
2022-07-25T19:36:05.853Z,3.58
2022-07-25T19:38:32.742Z,3.92
2022-07-25T19:40:59.528Z,3.30
2022-07-25T19:43:26.131Z,3.58
2022-07-25T19:45:52.741Z,3.58
2022-07-25T19:48:23.557Z,4.13
2022-07-25T19:50:51.279Z,3.03
2022-07-25T19:53:17.857Z,3.42
2022-07-25T19:55:44.453Z,3.67
2022-07-25T19:58:11.133Z,3.22
2022-07-25T20:00:38.119Z,3.67
2022-07-25T20:03:05.167Z,3.50
2022-07-25T20:05:32.467Z,3.55
2022-07-25T20:07:59.034Z,3.25
2022-07-25T20:10:25.592Z,3.50
2022-07-25T20:12:52.167Z,3.28
2022-07-25T20:15:18.759Z,3.30
2022-07-25T20:17:45.339Z,3.22
2022-07-25T20:20:12.025Z,3.40
2022-07-25T20:22:38.649Z,2.85
2022-07-25T20:25:07.146Z,2.78
2022-07-25T20:27:34.135Z,3.95
2022-07-25T20:30:03.363Z,3.03
2022-07-25T20:32:30.464Z,3.78
2022-07-25T20:34:57.799Z,3.78
2022-07-25T20:37:24.538Z,4.63
2022-07-25T20:39:51.904Z,5.97
2022-07-25T20:42:18.627Z,4.70
2022-07-25T20:44:45.329Z,3.47
2022-07-25T20:47:14.740Z,3.35
2022-07-25T20:49:41.499Z,3.10
2022-07-25T20:52:09.071Z,3.20
2022-07-25T20:54:36.748Z,3.90
2022-07-25T20:57:03.994Z,2.92
2022-07-25T20:59:30.647Z,3.13
2022-07-25T21:01:57.652Z,3.47
2022-07-25T21:04:24.316Z,3.35
2022-07-25T21:06:50.916Z,3.75
2022-07-25T21:09:17.762Z,3.42
2022-07-25T21:11:44.434Z,3.40
2022-07-25T21:14:11.281Z,3.65
2022-07-25T21:16:38.022Z,3.55
2022-07-25T21:19:04.953Z,4.22
2022-07-25T21:21:32.113Z,3.80
2022-07-25T21:23:58.750Z,3.78
2022-07-25T21:26:25.751Z,4.72
2022-07-25T21:28:52.291Z,4.15
2022-07-25T21:31:19.217Z,4.85
2022-07-25T21:33:45.854Z,4.20
2022-07-25T21:36:12.394Z,4.18
2022-07-25T21:38:38.983Z,4.38
2022-07-25T21:41:06.639Z,4.47
2022-07-25T21:43:33.210Z,4.03
2022-07-25T21:45:59.768Z,3.97
2022-07-25T21:48:45.375Z,3.55
2022-07-25T21:51:19.139Z,3.28
2022-07-25T21:53:51.328Z,3.60
2022-07-25T21:56:18.586Z,3.88
2022-07-25T21:58:45.178Z,3.38
2022-07-25T22:01:11.881Z,3.65
2022-07-25T22:03:40.331Z,3.33
2022-07-25T22:06:08.400Z,3.53
2022-07-25T22:08:34.928Z,2.90
2022-07-25T22:11:15.918Z,3.47
2022-07-25T22:13:47.415Z,2.90
2022-07-25T22:16:14.027Z,3.00
2022-07-25T22:18:40.555Z,3.42
2022-07-25T22:21:07.112Z,2.88
2022-07-25T22:23:33.671Z,3.50
2022-07-25T22:26:03.538Z,3.15
2022-07-25T22:28:30.151Z,3.97
2022-07-25T22:30:57.754Z,4.10
2022-07-25T22:33:26.271Z,3.42
2022-07-25T22:35:52.798Z,3.60
2022-07-25T22:38:19.846Z,4.53
2022-07-25T22:40:46.744Z,3.85
2022-07-25T22:43:13.269Z,4.20
2022-07-25T22:45:42.917Z,4.13
2022-07-25T22:50:36.173Z,3.72
2022-07-25T22:53:02.803Z,4.03
2022-07-25T22:55:29.407Z,3.97
2022-07-25T22:57:56.105Z,4.75
2022-07-25T23:00:22.685Z,4.60
2022-07-25T23:02:49.290Z,4.75
2022-07-25T23:05:16.196Z,4.65
2022-07-25T23:07:42.746Z,3.38
2022-07-25T23:10:10.101Z,4.18
2022-07-25T23:12:36.877Z,5.10
2022-07-25T23:15:04.482Z,4.82
2022-07-25T23:17:31.209Z,4.07
2022-07-25T23:19:58.418Z,4.88
2022-07-25T23:22:26.570Z,4.45
2022-07-25T23:24:53.101Z,4.68
2022-07-25T23:27:19.743Z,4.15
2022-07-25T23:29:46.369Z,4.90
2022-07-25T23:32:13.233Z,4.65
2022-07-25T23:34:40.571Z,5.32
2022-07-25T23:37:07.302Z,5.43
2022-07-25T23:39:33.900Z,5.10
2022-07-25T23:42:00.728Z,5.45
2022-07-25T23:44:27.449Z,4.60
2022-07-25T23:46:56.726Z,4.43
2022-07-25T23:49:24.042Z,4.95
2022-07-25T23:51:50.695Z,5.05
2022-07-25T23:54:17.283Z,5.95
2022-07-25T23:56:43.866Z,4.55
2022-07-25T23:59:10.955Z,6.28
